createdAt,value
2023-11-01T00:02:54.638Z,99762.72
2023-11-01T00:05:59.169Z,99785.31
2023-11-01T00:09:03.819Z,99784.31
2023-11-01T00:12:08.375Z,99783.66
2023-11-01T00:15:12.497Z,99786.38
2023-11-01T00:18:16.640Z,99775.09
2023-11-01T00:21:20.907Z,99779.31
2023-11-01T00:24:25.486Z,99749.06
2023-11-01T00:27:33.295Z,99770.59
2023-11-01T00:30:37.621Z,99767.88
2023-11-01T00:33:41.681Z,99763.69
2023-11-01T00:36:45.783Z,99768.91
2023-11-01T00:39:50.212Z,99776.38
2023-11-01T00:42:54.614Z,99775.91
2023-11-01T00:45:58.766Z,99739.13
2023-11-01T00:49:02.640Z,99733.75
2023-11-01T00:52:06.982Z,99747.28
2023-11-01T00:55:11.131Z,99736.13
2023-11-01T00:58:15.283Z,99766.63
2023-11-01T01:01:19.303Z,99743.72
2023-11-01T01:04:23.283Z,99731.53
2023-11-01T01:07:27.958Z,99763.19
2023-11-01T01:10:32.055Z,99754.91
2023-11-01T01:13:36.369Z,99749.03
2023-11-01T01:16:40.306Z,99741.19
2023-11-01T01:19:44.222Z,99749.03
2023-11-01T01:22:48.441Z,99752.19
2023-11-01T01:25:52.593Z,99721.53
2023-11-01T01:28:56.949Z,99732.41
2023-11-01T01:32:01.132Z,99730.63
2023-11-01T01:35:05.570Z,99693.47
2023-11-01T01:38:09.498Z,99716.00
2023-11-01T01:41:13.759Z,99716.25
2023-11-01T01:44:17.662Z,99730.00
2023-11-01T01:47:21.611Z,99724.56
2023-11-01T01:50:25.819Z,99713.00
2023-11-01T01:53:30.195Z,99711.22
2023-11-01T01:56:35.579Z,99704.31
2023-11-01T01:59:40.082Z,99642.69
2023-11-01T02:02:44.053Z,99677.19
2023-11-01T02:05:48.483Z,99583.94
2023-11-01T02:08:52.571Z,99665.31
2023-11-01T02:11:56.974Z,99699.72
2023-11-01T02:15:01.551Z,99699.78
2023-11-01T02:18:06.082Z,99697.22
2023-11-01T02:21:09.978Z,99695.34
2023-11-01T02:24:14.232Z,99700.34
2023-11-01T02:27:18.179Z,99675.94
2023-11-01T02:30:22.649Z,99683.41
2023-11-01T02:33:26.800Z,99650.41
2023-11-01T02:36:30.933Z,99680.66
2023-11-01T02:39:35.171Z,99676.69
2023-11-01T02:42:47.173Z,99665.28
2023-11-01T02:45:51.299Z,99617.91
2023-11-01T02:48:55.901Z,99653.69
2023-11-01T02:51:59.983Z,99625.50
2023-11-01T02:55:08.402Z,99634.41
2023-11-01T02:58:12.208Z,99609.78
2023-11-01T03:01:18.214Z,99645.84
2023-11-01T03:04:22.284Z,99638.44
2023-11-01T03:07:26.570Z,99612.78
2023-11-01T03:10:31.937Z,99630.44
2023-11-01T03:13:36.365Z,99614.19
2023-11-01T03:16:40.460Z,99624.94
2023-11-01T03:19:44.873Z,99615.72
2023-11-01T03:22:49.315Z,99619.59
2023-11-01T03:25:53.171Z,99580.38
2023-11-01T03:28:57.732Z,99603.84
2023-11-01T03:32:01.498Z,99609.44
2023-11-01T03:35:06.046Z,99579.53
2023-11-01T03:38:10.429Z,99598.91
2023-11-01T03:41:14.600Z,99586.44
2023-11-01T03:44:18.726Z,99546.16
2023-11-01T03:47:22.891Z,99590.81
2023-11-01T03:50:27.174Z,99593.88
2023-11-01T03:53:31.862Z,99590.75
2023-11-01T03:56:35.928Z,99590.78
2023-11-01T03:59:39.977Z,99582.66
2023-11-01T04:02:44.717Z,99563.16
2023-11-01T04:05:48.648Z,99545.47
2023-11-01T04:08:52.724Z,99581.97
2023-11-01T04:11:56.890Z,99562.56
2023-11-01T04:15:00.863Z,99570.78
2023-11-01T04:18:05.249Z,99540.47
2023-11-01T04:21:09.225Z,99572.91
2023-11-01T04:24:13.527Z,99569.75
2023-11-01T04:27:17.755Z,99567.91
2023-11-01T04:30:21.641Z,99559.75
2023-11-01T04:33:26.182Z,99528.81
2023-11-01T04:36:30.466Z,99547.25
2023-11-01T04:39:34.641Z,99525.09
2023-11-01T04:42:42.723Z,99519.47
2023-11-01T04:45:47.862Z,99535.66
2023-11-01T04:48:51.726Z,99529.16
2023-11-01T04:51:56.154Z,99522.13
2023-11-01T04:55:00.354Z,99510.13
2023-11-01T04:58:04.684Z,99509.16
2023-11-01T05:01:09.322Z,99503.91
2023-11-01T05:04:13.433Z,99513.31
2023-11-01T05:07:17.977Z,99511.19
2023-11-01T05:10:22.178Z,99471.38
2023-11-01T05:13:26.636Z,99464.66
2023-11-01T05:16:30.764Z,99482.19
2023-11-01T05:19:34.860Z,99495.44
2023-11-01T05:22:39.150Z,99501.47
2023-11-01T05:25:43.647Z,99449.16
2023-11-01T05:28:47.996Z,99491.72
2023-11-01T05:31:52.317Z,99495.84
2023-11-01T05:34:56.130Z,99483.66
2023-11-01T05:38:00.067Z,99464.13
2023-11-01T05:41:04.608Z,99488.16
2023-11-01T05:44:08.750Z,99483.31
2023-11-01T05:47:12.556Z,99459.34
2023-11-01T05:50:20.861Z,99488.50
2023-11-01T05:53:24.628Z,99463.03
2023-11-01T05:56:29.139Z,99366.47
2023-11-01T05:59:33.587Z,99491.66
2023-11-01T06:02:41.035Z,99496.19
2023-11-01T06:05:44.977Z,99481.00
2023-11-01T06:08:49.013Z,99488.00
2023-11-01T06:11:53.489Z,99457.69
2023-11-01T06:14:57.536Z,99467.34
2023-11-01T06:18:02.058Z,99452.34
2023-11-01T06:21:09.252Z,99502.81
2023-11-01T06:24:15.007Z,99479.84
2023-11-01T06:27:18.990Z,99502.16
2023-11-01T06:30:23.112Z,99507.84
2023-11-01T06:33:27.363Z,99506.66
2023-11-01T06:36:31.618Z,99487.53
2023-11-01T06:39:36.208Z,99509.16
2023-11-01T06:42:40.608Z,99499.78
2023-11-01T06:45:44.907Z,99482.66
2023-11-01T06:48:49.070Z,99456.38
2023-11-01T06:51:53.495Z,99505.63
2023-11-01T06:54:57.751Z,99496.63
2023-11-01T06:58:01.968Z,99505.34
2023-11-01T07:01:07.519Z,99499.31
2023-11-01T07:04:12.288Z,99494.31
2023-11-01T07:07:18.587Z,99518.66
2023-11-01T07:10:24.428Z,99512.81
2023-11-01T07:13:29.107Z,99513.66
2023-11-01T07:16:35.371Z,99519.63
2023-11-01T07:19:39.626Z,99454.69
2023-11-01T07:22:44.328Z,99503.34
2023-11-01T07:25:48.840Z,99493.84
2023-11-01T07:28:53.307Z,99511.50
2023-11-01T07:31:57.703Z,99481.34
2023-11-01T07:35:03.539Z,99490.34
2023-11-01T07:38:07.376Z,99501.31
2023-11-01T07:41:11.957Z,99504.34
2023-11-01T07:44:16.280Z,99495.31
2023-11-01T07:47:20.436Z,99498.66
2023-11-01T07:50:27.406Z,99500.69
2023-11-01T07:53:31.824Z,99502.84
2023-11-01T07:56:37.033Z,99491.91
2023-11-01T07:59:41.229Z,99440.38
2023-11-01T08:02:45.613Z,99434.41
2023-11-01T08:05:49.896Z,99485.25
2023-11-01T08:08:54.384Z,99492.88
2023-11-01T08:11:58.260Z,99498.22
2023-11-01T08:15:02.658Z,99485.75
2023-11-01T08:18:07.052Z,99462.81
2023-11-01T08:21:12.694Z,99494.66
2023-11-01T08:24:16.840Z,99492.56
2023-11-01T08:27:20.880Z,99444.56
2023-11-01T08:30:25.230Z,99481.19
2023-11-01T08:33:29.464Z,99485.97
2023-11-01T08:36:33.827Z,99483.28
2023-11-01T08:39:37.991Z,99482.88
2023-11-01T08:42:41.926Z,99482.06
2023-11-01T08:45:46.093Z,99461.44
2023-11-01T08:48:51.400Z,99459.78
2023-11-01T08:51:56.555Z,99485.53
2023-11-01T08:55:01.365Z,99480.06
2023-11-01T08:58:05.428Z,99472.84
2023-11-01T09:01:09.583Z,99478.03
2023-11-01T09:04:15.255Z,99482.91
2023-11-01T09:07:19.701Z,99478.25
2023-11-01T09:10:23.888Z,99422.75
2023-11-01T09:13:28.009Z,99470.13
2023-11-01T09:16:33.056Z,99472.53
2023-11-01T09:19:37.564Z,99464.44
2023-11-01T09:22:41.900Z,99463.44
2023-11-01T09:25:46.306Z,99471.94
2023-11-01T09:28:50.588Z,99424.34
2023-11-01T09:31:55.547Z,99466.41
2023-11-01T09:34:59.744Z,99470.34
2023-11-01T09:38:04.358Z,99456.75
2023-11-01T09:41:08.990Z,99439.03
2023-11-01T09:44:16.624Z,99459.03
2023-11-01T09:47:21.042Z,99479.69
2023-11-01T09:50:24.777Z,99476.63
2023-11-01T09:53:28.977Z,99444.72
2023-11-01T09:56:34.795Z,99481.44
2023-11-01T09:59:39.706Z,99477.06
2023-11-01T10:02:43.734Z,99475.66
2023-11-01T10:05:47.796Z,99481.78
2023-11-01T10:08:51.836Z,99476.56
2023-11-01T10:11:58.027Z,99475.88
2023-11-01T10:15:03.473Z,99480.06
2023-11-01T10:18:08.217Z,99473.47
2023-11-01T10:21:12.372Z,99467.16
2023-11-01T10:24:16.490Z,99470.38
2023-11-01T10:27:21.033Z,99440.44
2023-11-01T10:30:25.046Z,99460.41
2023-11-01T10:33:29.458Z,99396.16
2023-11-01T10:36:51.967Z,99423.94
2023-11-01T10:39:55.902Z,99440.31
2023-11-01T10:43:02.713Z,99433.22
2023-11-01T10:46:07.558Z,99431.25
2023-11-01T10:49:13.044Z,99420.94
2023-11-01T10:52:17.723Z,99438.88
2023-11-01T10:55:22.757Z,99412.25
2023-11-01T10:58:30.869Z,99431.59
2023-11-01T11:01:42.972Z,99432.38
2023-11-01T11:04:59.009Z,99410.94
2023-11-01T11:08:10.761Z,99410.75
2023-11-01T11:11:18.252Z,99402.16
2023-11-01T11:14:54.065Z,99392.94
2023-11-01T11:18:08.158Z,99383.84
2023-11-01T11:21:46.433Z,99374.19
2023-11-01T11:24:56.701Z,99338.63
2023-11-01T11:28:03.468Z,99355.69
2023-11-01T11:31:19.407Z,99333.56
2023-11-01T11:34:23.816Z,99337.09
2023-11-01T11:37:32.180Z,99337.06
2023-11-01T11:40:36.778Z,99333.34
2023-11-01T11:44:09.399Z,99329.66
2023-11-01T11:47:30.109Z,99318.22
2023-11-01T11:50:34.500Z,99333.03
2023-11-01T11:53:41.437Z,99313.59
2023-11-01T11:56:45.929Z,99317.53
2023-11-01T11:59:50.292Z,99313.19
2023-11-01T12:02:54.355Z,99308.38
2023-11-01T12:06:02.681Z,99299.53
2023-11-01T12:09:21.171Z,99284.44
2023-11-01T12:12:25.732Z,99292.69
2023-11-01T12:15:41.059Z,99289.28
2023-11-01T12:18:45.139Z,99289.63
2023-11-01T12:21:57.377Z,99284.91
2023-11-01T12:25:01.287Z,99277.75
2023-11-01T12:28:05.732Z,99271.69
2023-11-01T12:31:16.800Z,99269.91
2023-11-01T12:34:21.291Z,99268.94
2023-11-01T12:37:27.917Z,99271.06
2023-11-01T12:40:37.399Z,99267.38
2023-11-01T12:43:52.911Z,99258.69
2023-11-01T12:46:58.089Z,99263.63
2023-11-01T12:50:02.381Z,99260.63
2023-11-01T12:53:06.821Z,99252.88
2023-11-01T12:56:10.925Z,99252.72
2023-11-01T12:59:15.032Z,99254.84
2023-11-01T13:02:23.850Z,99262.00
2023-11-01T13:05:27.864Z,99272.94
2023-11-01T13:08:32.051Z,99247.06
2023-11-01T13:11:39.102Z,99251.09
2023-11-01T13:14:43.460Z,99255.75
2023-11-01T13:17:49.326Z,99238.38
2023-11-01T13:20:53.987Z,99222.88
2023-11-01T13:23:58.156Z,99226.06
2023-11-01T13:27:09.828Z,99207.03
2023-11-01T13:30:14.457Z,99206.81
2023-11-01T13:33:18.969Z,99189.13
2023-11-01T13:36:26.570Z,99190.06
2023-11-01T13:39:32.511Z,99182.94
2023-11-01T13:42:36.862Z,99182.63
2023-11-01T13:45:41.235Z,99162.19
2023-11-01T13:48:45.514Z,99138.31
2023-11-01T13:51:50.926Z,99175.00
2023-11-01T13:54:54.874Z,99173.41
2023-11-01T13:57:58.922Z,99176.34
2023-11-01T14:01:03.950Z,99146.31
2023-11-01T14:04:08.174Z,99119.78
2023-11-01T14:07:12.222Z,99163.44
2023-11-01T14:10:17.427Z,99169.28
2023-11-01T14:13:21.616Z,99135.97
2023-11-01T14:16:25.950Z,99139.63
2023-11-01T14:19:30.257Z,99113.28
2023-11-01T14:22:34.525Z,99147.94
2023-11-01T14:25:38.277Z,99141.53
2023-11-01T14:28:42.462Z,99141.94
2023-11-01T14:31:46.799Z,99114.84
2023-11-01T14:34:50.642Z,99142.47
2023-11-01T14:37:55.916Z,99148.72
2023-11-01T14:41:01.847Z,99117.84
2023-11-01T14:44:06.636Z,99118.00
2023-11-01T14:47:10.796Z,99123.38
2023-11-01T14:50:16.568Z,99105.94
2023-11-01T14:53:21.222Z,99086.47
2023-11-01T14:56:25.021Z,99111.69
2023-11-01T14:59:29.291Z,99104.00
2023-11-01T15:02:33.464Z,99107.75
2023-11-01T15:05:37.504Z,99110.63
2023-11-01T15:08:42.172Z,99114.28
2023-11-01T15:11:49.750Z,99103.97
2023-11-01T15:14:53.953Z,99103.22
2023-11-01T15:17:58.042Z,99065.56
2023-11-01T15:21:02.777Z,99089.72
2023-11-01T15:24:07.905Z,99090.53
2023-11-01T15:27:11.816Z,99074.34
2023-11-01T15:30:16.708Z,99032.28
2023-11-01T15:33:21.056Z,99068.56
2023-11-01T15:36:25.378Z,99059.06
2023-11-01T15:39:29.761Z,99055.69
2023-11-01T15:42:34.730Z,99060.31
2023-11-01T15:45:38.927Z,99053.41
2023-11-01T15:48:43.019Z,99023.38
2023-11-01T15:51:47.771Z,99049.47
2023-11-01T15:54:52.362Z,99048.50
2023-11-01T15:57:56.852Z,99013.19
2023-11-01T16:01:01.837Z,99033.19
2023-11-01T16:04:06.265Z,98989.66
2023-11-01T16:07:10.187Z,99039.19
2023-11-01T16:10:14.575Z,99043.75
2023-11-01T16:13:18.969Z,99036.28
2023-11-01T16:16:23.168Z,99022.38
2023-11-01T16:19:27.884Z,99026.56
2023-11-01T16:22:31.782Z,99028.38
2023-11-01T16:25:36.331Z,99026.25
2023-11-01T16:28:40.328Z,99043.75
2023-11-01T16:31:44.758Z,98981.75
2023-11-01T16:34:48.897Z,99036.97
2023-11-01T16:37:53.519Z,99046.19
2023-11-01T16:40:57.447Z,99041.81
2023-11-01T16:44:01.729Z,99050.75
2023-11-01T16:47:06.222Z,99047.34
2023-11-01T16:50:10.697Z,99052.25
2023-11-01T16:53:14.800Z,98999.69
2023-11-01T16:56:19.222Z,99010.25
2023-11-01T16:59:23.758Z,99040.72
2023-11-01T17:02:31.490Z,99013.03
2023-11-01T17:05:38.707Z,98994.72
2023-11-01T17:08:43.058Z,98976.16
2023-11-01T17:11:47.692Z,99038.06
2023-11-01T17:14:53.395Z,99024.63
2023-11-01T17:17:57.544Z,99014.09
2023-11-01T17:21:02.019Z,99036.53
2023-11-01T17:24:07.522Z,99039.28
2023-11-01T17:27:11.487Z,99047.97
2023-11-01T17:30:18.825Z,99046.97
2023-11-01T17:33:24.766Z,99033.31
2023-11-01T17:36:29.904Z,99026.19
2023-11-01T17:39:41.914Z,99032.38
2023-11-01T17:42:46.025Z,99028.00
2023-11-01T17:45:50.496Z,99024.06
2023-11-01T17:48:55.204Z,98994.09
2023-11-01T17:51:59.254Z,99032.88
2023-11-01T17:55:05.501Z,99034.16
2023-11-01T17:58:10.322Z,99038.50
2023-11-01T18:01:14.624Z,98996.34
2023-11-01T18:04:22.369Z,99015.97
2023-11-01T18:07:27.475Z,99027.31
2023-11-01T18:10:39.329Z,99030.72
2023-11-01T18:13:47.015Z,99009.28
2023-11-01T18:16:51.050Z,99037.41
2023-11-01T18:19:56.185Z,99038.63
2023-11-01T18:23:00.405Z,99018.38
2023-11-01T18:26:08.872Z,99045.06
2023-11-01T18:29:15.000Z,99049.69
2023-11-01T18:32:18.844Z,99021.56
2023-11-01T18:35:30.733Z,99026.06
2023-11-01T18:38:51.359Z,99059.97
2023-11-01T18:41:56.650Z,99063.00
2023-11-01T18:45:00.961Z,99034.63
2023-11-01T18:48:05.435Z,98984.75
2023-11-01T18:51:47.440Z,99038.66
2023-11-01T18:54:51.452Z,99020.16
2023-11-01T18:57:55.684Z,99026.88
2023-11-01T19:00:59.906Z,99015.69
2023-11-01T19:04:04.122Z,99014.25
2023-11-01T19:07:08.386Z,98982.50
2023-11-01T19:10:14.514Z,98991.75
2023-11-01T19:13:18.659Z,99007.47
2023-11-01T19:16:23.138Z,99006.53
2023-11-01T19:19:27.632Z,99015.72
2023-11-01T19:22:31.844Z,99010.41
2023-11-01T19:25:36.088Z,99024.13
2023-11-01T19:28:40.326Z,99018.16
2023-11-01T19:31:44.521Z,99002.41
2023-11-01T19:34:48.865Z,98987.56
2023-11-01T19:37:52.667Z,99026.72
2023-11-01T19:40:56.825Z,99015.97
2023-11-01T19:44:02.890Z,99010.38
2023-11-01T19:47:07.613Z,99006.69
2023-11-01T19:50:14.375Z,98998.06
2023-11-01T19:53:18.308Z,98996.34
2023-11-01T19:56:27.084Z,98991.41
2023-11-01T19:59:34.241Z,98946.56
2023-11-01T20:02:40.100Z,98980.31
2023-11-01T20:05:44.406Z,98974.44
2023-11-01T20:08:48.352Z,98975.72
2023-11-01T20:11:53.519Z,99005.69
2023-11-01T20:14:57.807Z,98975.72
2023-11-01T20:18:02.154Z,98973.13
2023-11-01T20:21:06.243Z,98943.22
2023-11-01T20:24:10.292Z,98932.66
2023-11-01T20:27:14.821Z,98988.19
2023-11-01T20:30:19.362Z,98984.34
2023-11-01T20:33:23.606Z,98978.09
2023-11-01T20:36:28.233Z,98943.44
2023-11-01T20:39:31.988Z,98968.69
2023-11-01T20:42:37.561Z,98978.16
2023-11-01T20:45:41.870Z,98974.13
2023-11-01T20:48:46.290Z,98954.00
2023-11-01T20:51:50.071Z,98967.69
2023-11-01T20:54:58.507Z,98964.78
2023-11-01T20:58:04.827Z,98963.38
2023-11-01T21:01:10.641Z,98956.13
2023-11-01T21:04:15.058Z,98954.00
2023-11-01T21:07:21.102Z,98907.59
2023-11-01T21:10:25.152Z,98960.31
2023-11-01T21:13:29.141Z,98944.69
2023-11-01T21:16:33.373Z,98922.91
2023-11-01T21:19:38.453Z,98914.66
2023-11-01T21:22:42.808Z,98930.69
2023-11-01T21:25:47.074Z,98882.66
2023-11-01T21:28:51.823Z,98919.44
2023-11-01T21:31:56.166Z,98918.75
2023-11-01T21:35:01.678Z,98917.63
2023-11-01T21:38:07.748Z,98917.59
2023-11-01T21:41:12.381Z,98849.94
2023-11-01T21:44:30.845Z,98889.44
2023-11-01T21:47:39.901Z,98849.75
2023-11-01T21:50:50.633Z,98854.06
2023-11-01T21:53:55.726Z,98866.97
2023-11-01T21:57:00.431Z,98869.31
2023-11-01T22:00:09.723Z,98863.13
2023-11-01T22:03:13.912Z,98836.16
2023-11-01T22:06:27.684Z,98856.44
2023-11-01T22:09:31.897Z,98857.75
2023-11-01T22:12:35.978Z,98856.38
2023-11-01T22:15:40.142Z,98857.47
2023-11-01T22:18:44.301Z,98842.31
2023-11-01T22:21:48.669Z,98825.38
2023-11-01T22:24:53.004Z,98838.88
2023-11-01T22:28:00.826Z,98811.59
2023-11-01T22:31:06.401Z,98830.50
2023-11-01T22:34:12.705Z,98813.47
2023-11-01T22:37:22.094Z,98817.66
2023-11-01T22:40:27.203Z,98763.47
2023-11-01T22:43:31.259Z,98777.16
2023-11-01T22:46:35.526Z,98767.06
2023-11-01T22:49:41.025Z,98790.41
2023-11-01T22:52:45.363Z,98793.06
2023-11-01T22:55:51.042Z,98772.81
2023-11-01T22:58:55.158Z,98749.13
2023-11-01T23:01:59.024Z,98780.44
2023-11-01T23:05:03.841Z,98769.75
2023-11-01T23:08:07.887Z,98755.06
2023-11-01T23:11:12.218Z,98748.50
2023-11-01T23:14:16.298Z,98754.28
2023-11-01T23:17:20.705Z,98749.59
2023-11-01T23:20:24.710Z,98750.34
2023-11-01T23:23:32.700Z,98742.97
2023-11-01T23:26:54.451Z,98750.22
2023-11-01T23:29:59.365Z,98738.06
2023-11-01T23:33:04.625Z,98722.88
2023-11-01T23:36:13.946Z,98714.53
2023-11-01T23:39:37.589Z,98710.22
2023-11-01T23:42:41.904Z,98708.81
2023-11-01T23:46:01.600Z,98698.44
2023-11-01T23:49:07.633Z,98678.19
2023-11-01T23:52:18.048Z,98630.34
2023-11-01T23:55:22.023Z,98665.31
2023-11-01T23:58:36.345Z,98664.22
